sensor_id;sensor_type;location;lat;lon;timestamp;P1;durP1;ratioP1;P2;durP2;ratioP2
70433;SDS011;57876;47.792;12.960;2023-08-01T00:01:27;5.68;;;2.03;;
70433;SDS011;57876;47.792;12.960;2023-08-01T00:03:52;6.00;;;2.20;;
70433;SDS011;57876;47.792;12.960;2023-08-01T00:06:16;5.38;;;2.05;;
70433;SDS011;57876;47.792;12.960;2023-08-01T00:08:41;5.80;;;2.07;;
70433;SDS011;57876;47.792;12.960;2023-08-01T00:11:05;5.93;;;2.03;;
70433;SDS011;57876;47.792;12.960;2023-08-01T00:13:29;5.47;;;1.90;;
70433;SDS011;57876;47.792;12.960;2023-08-01T00:15:54;6.07;;;2.35;;
70433;SDS011;57876;47.792;12.960;2023-08-01T00:18:18;5.53;;;2.10;;
70433;SDS011;57876;47.792;12.960;2023-08-01T00:20:43;5.30;;;1.90;;
70433;SDS011;57876;47.792;12.960;2023-08-01T00:23:07;5.37;;;1.90;;
70433;SDS011;57876;47.792;12.960;2023-08-01T00:25:31;5.40;;;1.90;;
70433;SDS011;57876;47.792;12.960;2023-08-01T00:27:56;5.22;;;2.00;;
70433;SDS011;57876;47.792;12.960;2023-08-01T00:30:20;6.10;;;2.10;;
70433;SDS011;57876;47.792;12.960;2023-08-01T00:32:44;5.37;;;2.03;;
70433;SDS011;57876;47.792;12.960;2023-08-01T00:35:09;5.97;;;2.03;;
70433;SDS011;57876;47.792;12.960;2023-08-01T00:37:33;5.17;;;1.90;;
70433;SDS011;57876;47.792;12.960;2023-08-01T00:39:57;5.37;;;2.07;;
70433;SDS011;57876;47.792;12.960;2023-08-01T00:42:22;5.90;;;1.90;;
70433;SDS011;57876;47.792;12.960;2023-08-01T00:44:46;5.25;;;1.90;;
70433;SDS011;57876;47.792;12.960;2023-08-01T00:47:12;5.10;;;1.70;;
70433;SDS011;57876;47.792;12.960;2023-08-01T00:49:37;5.50;;;1.90;;
70433;SDS011;57876;47.792;12.960;2023-08-01T00:52:01;6.13;;;2.10;;
70433;SDS011;57876;47.792;12.960;2023-08-01T00:54:26;5.73;;;2.10;;
70433;SDS011;57876;47.792;12.960;2023-08-01T00:56:51;5.57;;;1.92;;
70433;SDS011;57876;47.792;12.960;2023-08-01T00:59:15;5.57;;;1.90;;
70433;SDS011;57876;47.792;12.960;2023-08-01T01:01:40;5.82;;;1.92;;
70433;SDS011;57876;47.792;12.960;2023-08-01T01:04:04;5.57;;;2.00;;
70433;SDS011;57876;47.792;12.960;2023-08-01T01:06:32;4.73;;;1.80;;
70433;SDS011;57876;47.792;12.960;2023-08-01T01:09:01;5.30;;;1.90;;
70433;SDS011;57876;47.792;12.960;2023-08-01T01:11:28;5.40;;;2.17;;
70433;SDS011;57876;47.792;12.960;2023-08-01T01:13:53;5.50;;;1.83;;
70433;SDS011;57876;47.792;12.960;2023-08-01T01:16:17;5.87;;;1.77;;
70433;SDS011;57876;47.792;12.960;2023-08-01T01:18:42;5.37;;;1.90;;
70433;SDS011;57876;47.792;12.960;2023-08-01T01:21:24;4.90;;;1.80;;
70433;SDS011;57876;47.792;12.960;2023-08-01T01:23:49;5.07;;;1.80;;
70433;SDS011;57876;47.792;12.960;2023-08-01T01:26:15;5.45;;;2.15;;
70433;SDS011;57876;47.792;12.960;2023-08-01T01:28:44;5.00;;;1.80;;
70433;SDS011;57876;47.792;12.960;2023-08-01T01:31:09;5.13;;;2.00;;
70433;SDS011;57876;47.792;12.960;2023-08-01T01:33:33;4.90;;;1.83;;
70433;SDS011;57876;47.792;12.960;2023-08-01T01:35:59;5.18;;;1.73;;
70433;SDS011;57876;47.792;12.960;2023-08-01T01:38:25;5.53;;;2.00;;
70433;SDS011;57876;47.792;12.960;2023-08-01T01:40:49;5.73;;;2.07;;
70433;SDS011;57876;47.792;12.960;2023-08-01T01:43:13;4.93;;;1.70;;
70433;SDS011;57876;47.792;12.960;2023-08-01T01:45:38;4.90;;;1.70;;
70433;SDS011;57876;47.792;12.960;2023-08-01T01:48:02;5.13;;;1.63;;
70433;SDS011;57876;47.792;12.960;2023-08-01T01:50:27;5.78;;;1.65;;
70433;SDS011;57876;47.792;12.960;2023-08-01T01:52:51;4.97;;;1.67;;
70433;SDS011;57876;47.792;12.960;2023-08-01T01:55:15;5.10;;;1.80;;
70433;SDS011;57876;47.792;12.960;2023-08-01T01:57:40;5.07;;;1.80;;
70433;SDS011;57876;47.792;12.960;2023-08-01T02:00:04;5.10;;;1.98;;
70433;SDS011;57876;47.792;12.960;2023-08-01T02:02:29;5.00;;;1.63;;
70433;SDS011;57876;47.792;12.960;2023-08-01T02:04:54;5.00;;;1.80;;
70433;SDS011;57876;47.792;12.960;2023-08-01T02:07:18;5.43;;;1.90;;
70433;SDS011;57876;47.792;12.960;2023-08-01T02:09:43;6.53;;;1.80;;
70433;SDS011;57876;47.792;12.960;2023-08-01T02:12:07;4.93;;;1.60;;
70433;SDS011;57876;47.792;12.960;2023-08-01T02:14:33;4.70;;;1.50;;
70433;SDS011;57876;47.792;12.960;2023-08-01T02:16:58;4.90;;;1.70;;
70433;SDS011;57876;47.792;12.960;2023-08-01T02:19:22;5.10;;;1.83;;
70433;SDS011;57876;47.792;12.960;2023-08-01T02:21:47;5.25;;;1.73;;
70433;SDS011;57876;47.792;12.960;2023-08-01T02:24:11;4.83;;;1.80;;
70433;SDS011;57876;47.792;12.960;2023-08-01T02:26:35;4.90;;;1.70;;
70433;SDS011;57876;47.792;12.960;2023-08-01T02:29:00;4.83;;;1.70;;
70433;SDS011;57876;47.792;12.960;2023-08-01T02:31:24;5.20;;;1.73;;
70433;SDS011;57876;47.792;12.960;2023-08-01T02:33:48;5.47;;;1.80;;
70433;SDS011;57876;47.792;12.960;2023-08-01T02:36:13;5.50;;;1.80;;
70433;SDS011;57876;47.792;12.960;2023-08-01T02:38:38;4.90;;;1.60;;
70433;SDS011;57876;47.792;12.960;2023-08-01T02:41:02;5.13;;;1.50;;
70433;SDS011;57876;47.792;12.960;2023-08-01T02:43:26;4.90;;;1.80;;
70433;SDS011;57876;47.792;12.960;2023-08-01T02:45:51;4.97;;;1.80;;
70433;SDS011;57876;47.792;12.960;2023-08-01T02:48:15;4.53;;;1.50;;
70433;SDS011;57876;47.792;12.960;2023-08-01T02:50:40;5.33;;;1.70;;
70433;SDS011;57876;47.792;12.960;2023-08-01T02:53:04;4.97;;;1.80;;
70433;SDS011;57876;47.792;12.960;2023-08-01T02:55:29;4.90;;;1.60;;
70433;SDS011;57876;47.792;12.960;2023-08-01T02:57:53;4.97;;;1.53;;
70433;SDS011;57876;47.792;12.960;2023-08-01T03:00:17;5.60;;;1.90;;
70433;SDS011;57876;47.792;12.960;2023-08-01T03:02:42;5.30;;;1.58;;
70433;SDS011;57876;47.792;12.960;2023-08-01T03:05:07;4.83;;;1.60;;
70433;SDS011;57876;47.792;12.960;2023-08-01T03:07:32;4.90;;;1.67;;
70433;SDS011;57876;47.792;12.960;2023-08-01T03:09:56;4.80;;;1.63;;
70433;SDS011;57876;47.792;12.960;2023-08-01T03:12:21;4.87;;;1.70;;
70433;SDS011;57876;47.792;12.960;2023-08-01T03:14:45;4.77;;;1.60;;
70433;SDS011;57876;47.792;12.960;2023-08-01T03:17:11;4.85;;;1.52;;
70433;SDS011;57876;47.792;12.960;2023-08-01T03:19:36;4.60;;;1.60;;
70433;SDS011;57876;47.792;12.960;2023-08-01T03:22:00;4.63;;;1.57;;
70433;SDS011;57876;47.792;12.960;2023-08-01T03:24:25;4.80;;;1.58;;
70433;SDS011;57876;47.792;12.960;2023-08-01T03:26:49;4.97;;;1.53;;
70433;SDS011;57876;47.792;12.960;2023-08-01T03:29:13;4.60;;;1.47;;
70433;SDS011;57876;47.792;12.960;2023-08-01T03:31:38;4.97;;;1.50;;
70433;SDS011;57876;47.792;12.960;2023-08-01T03:34:02;4.73;;;1.50;;
70433;SDS011;57876;47.792;12.960;2023-08-01T03:36:27;5.00;;;1.65;;
70433;SDS011;57876;47.792;12.960;2023-08-01T03:38:52;4.75;;;1.52;;
70433;SDS011;57876;47.792;12.960;2023-08-01T03:41:16;4.90;;;1.50;;
70433;SDS011;57876;47.792;12.960;2023-08-01T03:43:41;5.23;;;1.67;;
70433;SDS011;57876;47.792;12.960;2023-08-01T03:46:05;4.77;;;1.57;;
70433;SDS011;57876;47.792;12.960;2023-08-01T03:48:31;5.07;;;1.60;;
70433;SDS011;57876;47.792;12.960;2023-08-01T03:50:55;5.10;;;1.80;;
70433;SDS011;57876;47.792;12.960;2023-08-01T03:53:19;4.70;;;1.50;;
70433;SDS011;57876;47.792;12.960;2023-08-01T03:55:44;5.07;;;1.60;;
70433;SDS011;57876;47.792;12.960;2023-08-01T03:58:08;4.80;;;1.70;;
70433;SDS011;57876;47.792;12.960;2023-08-01T04:00:33;4.93;;;1.50;;
70433;SDS011;57876;47.792;12.960;2023-08-01T04:03:00;5.28;;;1.80;;
70433;SDS011;57876;47.792;12.960;2023-08-01T04:05:25;4.90;;;1.60;;
70433;SDS011;57876;47.792;12.960;2023-08-01T04:07:50;4.97;;;1.60;;
70433;SDS011;57876;47.792;12.960;2023-08-01T04:10:14;4.97;;;1.60;;
70433;SDS011;57876;47.792;12.960;2023-08-01T04:12:38;5.30;;;1.60;;
70433;SDS011;57876;47.792;12.960;2023-08-01T04:15:03;5.18;;;1.55;;
70433;SDS011;57876;47.792;12.960;2023-08-01T04:17:28;4.80;;;1.63;;
70433;SDS011;57876;47.792;12.960;2023-08-01T04:19:53;4.60;;;1.60;;
70433;SDS011;57876;47.792;12.960;2023-08-01T04:22:18;4.90;;;1.50;;
70433;SDS011;57876;47.792;12.960;2023-08-01T04:24:42;4.80;;;1.70;;
70433;SDS011;57876;47.792;12.960;2023-08-01T04:27:07;5.07;;;1.77;;
70433;SDS011;57876;47.792;12.960;2023-08-01T04:29:31;4.70;;;1.43;;
70433;SDS011;57876;47.792;12.960;2023-08-01T04:31:56;5.10;;;1.80;;
70433;SDS011;57876;47.792;12.960;2023-08-01T04:34:20;4.63;;;1.35;;
70433;SDS011;57876;47.792;12.960;2023-08-01T04:36:45;4.97;;;1.70;;
70433;SDS011;57876;47.792;12.960;2023-08-01T04:39:09;4.83;;;1.40;;
70433;SDS011;57876;47.792;12.960;2023-08-01T04:41:33;5.00;;;1.73;;
70433;SDS011;57876;47.792;12.960;2023-08-01T04:43:58;5.10;;;1.50;;
70433;SDS011;57876;47.792;12.960;2023-08-01T04:46:22;4.60;;;1.60;;
70433;SDS011;57876;47.792;12.960;2023-08-01T04:48:46;4.80;;;1.57;;
70433;SDS011;57876;47.792;12.960;2023-08-01T04:51:11;5.07;;;1.60;;
70433;SDS011;57876;47.792;12.960;2023-08-01T04:53:35;4.97;;;1.60;;
70433;SDS011;57876;47.792;12.960;2023-08-01T04:55:59;4.53;;;1.40;;
70433;SDS011;57876;47.792;12.960;2023-08-01T04:58:24;4.88;;;1.33;;
70433;SDS011;57876;47.792;12.960;2023-08-01T05:00:48;4.70;;;1.50;;
70433;SDS011;57876;47.792;12.960;2023-08-01T05:03:13;4.90;;;1.57;;
70433;SDS011;57876;47.792;12.960;2023-08-01T05:05:37;4.70;;;1.40;;
70433;SDS011;57876;47.792;12.960;2023-08-01T05:08:01;4.97;;;1.60;;
70433;SDS011;57876;47.792;12.960;2023-08-01T05:10:26;5.03;;;1.63;;
70433;SDS011;57876;47.792;12.960;2023-08-01T05:12:50;4.33;;;1.20;;
70433;SDS011;57876;47.792;12.960;2023-08-01T05:15:14;4.67;;;1.57;;
70433;SDS011;57876;47.792;12.960;2023-08-01T05:17:39;4.60;;;1.50;;
70433;SDS011;57876;47.792;12.960;2023-08-01T05:20:03;4.67;;;1.40;;
70433;SDS011;57876;47.792;12.960;2023-08-01T05:22:28;4.68;;;1.38;;
70433;SDS011;57876;47.792;12.960;2023-08-01T05:24:53;4.60;;;1.50;;
70433;SDS011;57876;47.792;12.960;2023-08-01T05:27:17;4.30;;;1.30;;
70433;SDS011;57876;47.792;12.960;2023-08-01T05:29:41;4.90;;;1.73;;
70433;SDS011;57876;47.792;12.960;2023-08-01T05:32:06;4.60;;;1.43;;
70433;SDS011;57876;47.792;12.960;2023-08-01T05:34:30;5.17;;;1.70;;
70433;SDS011;57876;47.792;12.960;2023-08-01T05:36:55;4.90;;;1.70;;
70433;SDS011;57876;47.792;12.960;2023-08-01T05:39:19;4.97;;;1.57;;
70433;SDS011;57876;47.792;12.960;2023-08-01T05:41:44;5.00;;;1.60;;
70433;SDS011;57876;47.792;12.960;2023-08-01T05:44:08;4.80;;;1.60;;
70433;SDS011;57876;47.792;12.960;2023-08-01T05:46:32;4.23;;;1.40;;
70433;SDS011;57876;47.792;12.960;2023-08-01T05:48:57;4.90;;;1.45;;
70433;SDS011;57876;47.792;12.960;2023-08-01T05:51:21;5.17;;;1.60;;
70433;SDS011;57876;47.792;12.960;2023-08-01T05:53:46;5.43;;;1.53;;
70433;SDS011;57876;47.792;12.960;2023-08-01T05:56:10;5.23;;;1.60;;
70433;SDS011;57876;47.792;12.960;2023-08-01T05:58:35;4.80;;;1.40;;
70433;SDS011;57876;47.792;12.960;2023-08-01T06:00:59;4.82;;;1.50;;
70433;SDS011;57876;47.792;12.960;2023-08-01T06:03:23;4.83;;;1.60;;
70433;SDS011;57876;47.792;12.960;2023-08-01T06:05:48;4.97;;;1.67;;
70433;SDS011;57876;47.792;12.960;2023-08-01T06:08:13;4.68;;;1.55;;
70433;SDS011;57876;47.792;12.960;2023-08-01T06:10:39;4.50;;;1.15;;
70433;SDS011;57876;47.792;12.960;2023-08-01T06:13:04;4.50;;;1.40;;
70433;SDS011;57876;47.792;12.960;2023-08-01T06:15:28;4.60;;;1.43;;
70433;SDS011;57876;47.792;12.960;2023-08-01T06:17:52;4.90;;;1.53;;
70433;SDS011;57876;47.792;12.960;2023-08-01T06:20:17;5.80;;;1.70;;
70433;SDS011;57876;47.792;12.960;2023-08-01T06:22:42;4.53;;;1.53;;
70433;SDS011;57876;47.792;12.960;2023-08-01T06:25:06;5.15;;;1.58;;
70433;SDS011;57876;47.792;12.960;2023-08-01T06:27:31;4.70;;;1.40;;
70433;SDS011;57876;47.792;12.960;2023-08-01T06:29:55;4.80;;;1.57;;
70433;SDS011;57876;47.792;12.960;2023-08-01T06:32:20;5.07;;;1.50;;
70433;SDS011;57876;47.792;12.960;2023-08-01T06:34:44;4.43;;;1.38;;
70433;SDS011;57876;47.792;12.960;2023-08-01T06:37:08;5.90;;;1.57;;
70433;SDS011;57876;47.792;12.960;2023-08-01T06:39:34;5.17;;;1.50;;
70433;SDS011;57876;47.792;12.960;2023-08-01T06:41:58;4.65;;;1.45;;
70433;SDS011;57876;47.792;12.960;2023-08-01T06:44:23;5.00;;;1.60;;
70433;SDS011;57876;47.792;12.960;2023-08-01T06:46:49;4.77;;;1.70;;
70433;SDS011;57876;47.792;12.960;2023-08-01T06:49:13;5.05;;;1.60;;
70433;SDS011;57876;47.792;12.960;2023-08-01T06:51:37;4.47;;;1.30;;
70433;SDS011;57876;47.792;12.960;2023-08-01T06:54:02;4.83;;;1.50;;
70433;SDS011;57876;47.792;12.960;2023-08-01T06:56:26;4.60;;;1.20;;
70433;SDS011;57876;47.792;12.960;2023-08-01T06:58:50;5.10;;;1.60;;
70433;SDS011;57876;47.792;12.960;2023-08-01T07:01:15;4.83;;;1.43;;
70433;SDS011;57876;47.792;12.960;2023-08-01T07:03:39;4.90;;;1.60;;
70433;SDS011;57876;47.792;12.960;2023-08-01T07:06:04;4.40;;;1.30;;
70433;SDS011;57876;47.792;12.960;2023-08-01T07:08:28;4.67;;;1.30;;
70433;SDS011;57876;47.792;12.960;2023-08-01T07:10:53;4.60;;;1.30;;
70433;SDS011;57876;47.792;12.960;2023-08-01T07:13:17;4.30;;;1.20;;
70433;SDS011;57876;47.792;12.960;2023-08-01T07:15:43;4.75;;;1.30;;
70433;SDS011;57876;47.792;12.960;2023-08-01T07:18:07;4.50;;;1.37;;
70433;SDS011;57876;47.792;12.960;2023-08-01T07:20:32;4.63;;;1.30;;
70433;SDS011;57876;47.792;12.960;2023-08-01T07:22:56;4.50;;;1.43;;
70433;SDS011;57876;47.792;12.960;2023-08-01T07:25:20;4.63;;;1.40;;
70433;SDS011;57876;47.792;12.960;2023-08-01T07:27:46;4.70;;;1.50;;
70433;SDS011;57876;47.792;12.960;2023-08-01T07:30:11;4.27;;;1.37;;
70433;SDS011;57876;47.792;12.960;2023-08-01T07:32:36;4.40;;;1.30;;
70433;SDS011;57876;47.792;12.960;2023-08-01T07:35:02;4.90;;;1.30;;
70433;SDS011;57876;47.792;12.960;2023-08-01T07:37:26;4.50;;;1.30;;
70433;SDS011;57876;47.792;12.960;2023-08-01T07:39:52;4.55;;;1.40;;
70433;SDS011;57876;47.792;12.960;2023-08-01T07:42:16;4.60;;;1.13;;
70433;SDS011;57876;47.792;12.960;2023-08-01T07:44:41;4.40;;;1.30;;
70433;SDS011;57876;47.792;12.960;2023-08-01T07:47:05;4.50;;;1.37;;
70433;SDS011;57876;47.792;12.960;2023-08-01T07:49:29;4.80;;;1.40;;
70433;SDS011;57876;47.792;12.960;2023-08-01T07:51:54;4.27;;;1.30;;
70433;SDS011;57876;47.792;12.960;2023-08-01T07:54:18;4.57;;;1.30;;
70433;SDS011;57876;47.792;12.960;2023-08-01T07:56:43;4.87;;;1.50;;
70433;SDS011;57876;47.792;12.960;2023-08-01T07:59:07;4.53;;;1.30;;
70433;SDS011;57876;47.792;12.960;2023-08-01T08:01:32;4.47;;;1.23;;
70433;SDS011;57876;47.792;12.960;2023-08-01T08:03:56;4.37;;;1.10;;
70433;SDS011;57876;47.792;12.960;2023-08-01T08:06:20;4.50;;;1.40;;
70433;SDS011;57876;47.792;12.960;2023-08-01T08:08:45;5.07;;;1.40;;
70433;SDS011;57876;47.792;12.960;2023-08-01T08:11:09;4.60;;;1.40;;
70433;SDS011;57876;47.792;12.960;2023-08-01T08:13:34;5.03;;;1.43;;
70433;SDS011;57876;47.792;12.960;2023-08-01T08:15:58;4.67;;;1.40;;
70433;SDS011;57876;47.792;12.960;2023-08-01T08:18:23;4.70;;;1.30;;
70433;SDS011;57876;47.792;12.960;2023-08-01T08:20:48;4.90;;;1.20;;
70433;SDS011;57876;47.792;12.960;2023-08-01T08:23:12;4.77;;;1.47;;
70433;SDS011;57876;47.792;12.960;2023-08-01T08:25:38;4.60;;;1.20;;
70433;SDS011;57876;47.792;12.960;2023-08-01T08:28:02;4.47;;;1.30;;
70433;SDS011;57876;47.792;12.960;2023-08-01T08:30:27;4.93;;;1.40;;
70433;SDS011;57876;47.792;12.960;2023-08-01T08:32:51;4.60;;;1.30;;
70433;SDS011;57876;47.792;12.960;2023-08-01T08:35:15;5.20;;;1.40;;
70433;SDS011;57876;47.792;12.960;2023-08-01T08:37:40;5.13;;;1.40;;
70433;SDS011;57876;47.792;12.960;2023-08-01T08:40:04;4.93;;;1.40;;
70433;SDS011;57876;47.792;12.960;2023-08-01T08:42:29;4.20;;;1.40;;
70433;SDS011;57876;47.792;12.960;2023-08-01T08:44:57;5.00;;;1.17;;
70433;SDS011;57876;47.792;12.960;2023-08-01T08:47:25;4.57;;;1.40;;
70433;SDS011;57876;47.792;12.960;2023-08-01T08:49:50;4.63;;;1.38;;
70433;SDS011;57876;47.792;12.960;2023-08-01T08:52:15;5.53;;;1.50;;
70433;SDS011;57876;47.792;12.960;2023-08-01T08:54:40;4.60;;;1.20;;
70433;SDS011;57876;47.792;12.960;2023-08-01T08:57:05;4.63;;;1.25;;
70433;SDS011;57876;47.792;12.960;2023-08-01T08:59:30;4.40;;;1.20;;
70433;SDS011;57876;47.792;12.960;2023-08-01T09:01:55;4.50;;;1.30;;
70433;SDS011;57876;47.792;12.960;2023-08-01T09:04:19;4.70;;;1.37;;
70433;SDS011;57876;47.792;12.960;2023-08-01T09:06:55;4.50;;;1.30;;
70433;SDS011;57876;47.792;12.960;2023-08-01T09:09:22;4.50;;;1.40;;
70433;SDS011;57876;47.792;12.960;2023-08-01T09:11:50;4.33;;;1.17;;
70433;SDS011;57876;47.792;12.960;2023-08-01T09:14:16;4.68;;;1.30;;
70433;SDS011;57876;47.792;12.960;2023-08-01T09:16:41;4.97;;;1.38;;
70433;SDS011;57876;47.792;12.960;2023-08-01T09:19:06;4.68;;;1.35;;
70433;SDS011;57876;47.792;12.960;2023-08-01T09:21:32;4.78;;;1.40;;
70433;SDS011;57876;47.792;12.960;2023-08-01T09:24:16;5.10;;;1.40;;
70433;SDS011;57876;47.792;12.960;2023-08-01T09:26:42;4.53;;;1.15;;
70433;SDS011;57876;47.792;12.960;2023-08-01T09:29:07;5.15;;;1.63;;
70433;SDS011;57876;47.792;12.960;2023-08-01T09:31:34;4.47;;;1.40;;
70433;SDS011;57876;47.792;12.960;2023-08-01T09:34:00;4.50;;;1.40;;
70433;SDS011;57876;47.792;12.960;2023-08-01T09:36:29;4.50;;;1.30;;
70433;SDS011;57876;47.792;12.960;2023-08-01T09:39:03;4.60;;;1.25;;
70433;SDS011;57876;47.792;12.960;2023-08-01T09:41:28;4.75;;;1.27;;
70433;SDS011;57876;47.792;12.960;2023-08-01T09:43:54;4.35;;;1.20;;
70433;SDS011;57876;47.792;12.960;2023-08-01T09:46:18;4.70;;;1.30;;
70433;SDS011;57876;47.792;12.960;2023-08-01T09:48:43;5.22;;;1.33;;
70433;SDS011;57876;47.792;12.960;2023-08-01T09:51:12;4.47;;;1.17;;
70433;SDS011;57876;47.792;12.960;2023-08-01T09:53:54;4.45;;;1.20;;
70433;SDS011;57876;47.792;12.960;2023-08-01T09:56:20;4.25;;;1.15;;
70433;SDS011;57876;47.792;12.960;2023-08-01T09:58:50;4.50;;;1.30;;
70433;SDS011;57876;47.792;12.960;2023-08-01T10:01:18;4.43;;;1.30;;
70433;SDS011;57876;47.792;12.960;2023-08-01T10:03:44;4.65;;;1.15;;
70433;SDS011;57876;47.792;12.960;2023-08-01T10:06:13;4.70;;;1.15;;
70433;SDS011;57876;47.792;12.960;2023-08-01T10:08:40;4.85;;;1.10;;
70433;SDS011;57876;47.792;12.960;2023-08-01T10:11:05;5.03;;;1.40;;
70433;SDS011;57876;47.792;12.960;2023-08-01T10:13:30;4.30;;;1.23;;
70433;SDS011;57876;47.792;12.960;2023-08-01T10:15:56;4.90;;;1.40;;
70433;SDS011;57876;47.792;12.960;2023-08-01T10:18:20;4.80;;;1.27;;
70433;SDS011;57876;47.792;12.960;2023-08-01T10:20:46;4.60;;;1.33;;
70433;SDS011;57876;47.792;12.960;2023-08-01T10:23:12;4.20;;;1.20;;
70433;SDS011;57876;47.792;12.960;2023-08-01T10:25:37;4.17;;;1.10;;
70433;SDS011;57876;47.792;12.960;2023-08-01T10:28:03;4.25;;;1.08;;
70433;SDS011;57876;47.792;12.960;2023-08-01T10:30:30;4.53;;;1.30;;
70433;SDS011;57876;47.792;12.960;2023-08-01T10:32:55;4.68;;;1.38;;
70433;SDS011;57876;47.792;12.960;2023-08-01T10:35:31;4.87;;;1.20;;
70433;SDS011;57876;47.792;12.960;2023-08-01T10:38:10;4.93;;;1.38;;
70433;SDS011;57876;47.792;12.960;2023-08-01T10:40:39;5.05;;;1.15;;
70433;SDS011;57876;47.792;12.960;2023-08-01T10:43:05;4.78;;;1.33;;
70433;SDS011;57876;47.792;12.960;2023-08-01T10:45:30;4.50;;;1.20;;
70433;SDS011;57876;47.792;12.960;2023-08-01T10:48:05;4.22;;;1.20;;
70433;SDS011;57876;47.792;12.960;2023-08-01T10:50:34;4.82;;;1.20;;
70433;SDS011;57876;47.792;12.960;2023-08-01T10:53:05;4.60;;;1.10;;
70433;SDS011;57876;47.792;12.960;2023-08-01T10:55:45;4.55;;;1.30;;
70433;SDS011;57876;47.792;12.960;2023-08-01T10:58:10;4.83;;;1.40;;
70433;SDS011;57876;47.792;12.960;2023-08-01T11:00:35;4.70;;;1.40;;
70433;SDS011;57876;47.792;12.960;2023-08-01T11:02:59;4.40;;;1.10;;
70433;SDS011;57876;47.792;12.960;2023-08-01T11:05:23;5.10;;;1.40;;
70433;SDS011;57876;47.792;12.960;2023-08-01T11:07:53;4.38;;;1.13;;
70433;SDS011;57876;47.792;12.960;2023-08-01T11:10:22;5.15;;;1.20;;
70433;SDS011;57876;47.792;12.960;2023-08-01T11:12:47;5.63;;;1.30;;
70433;SDS011;57876;47.792;12.960;2023-08-01T11:15:12;5.00;;;1.50;;
70433;SDS011;57876;47.792;12.960;2023-08-01T11:17:38;4.65;;;1.30;;
70433;SDS011;57876;47.792;12.960;2023-08-01T11:20:07;4.25;;;1.20;;
70433;SDS011;57876;47.792;12.960;2023-08-01T11:22:37;5.40;;;1.48;;
70433;SDS011;57876;47.792;12.960;2023-08-01T11:25:02;4.83;;;1.50;;
70433;SDS011;57876;47.792;12.960;2023-08-01T11:27:27;6.90;;;1.40;;
70433;SDS011;57876;47.792;12.960;2023-08-01T11:29:52;5.25;;;1.33;;
70433;SDS011;57876;47.792;12.960;2023-08-01T11:32:17;4.50;;;1.20;;
70433;SDS011;57876;47.792;12.960;2023-08-01T11:34:42;4.47;;;1.23;;
70433;SDS011;57876;47.792;12.960;2023-08-01T11:37:08;4.65;;;1.30;;
70433;SDS011;57876;47.792;12.960;2023-08-01T11:39:32;4.57;;;1.33;;
70433;SDS011;57876;47.792;12.960;2023-08-01T11:41:58;5.22;;;1.30;;
70433;SDS011;57876;47.792;12.960;2023-08-01T11:44:25;4.53;;;1.23;;
70433;SDS011;57876;47.792;12.960;2023-08-01T11:46:49;4.38;;;1.10;;
70433;SDS011;57876;47.792;12.960;2023-08-01T11:49:14;5.43;;;1.20;;
70433;SDS011;57876;47.792;12.960;2023-08-01T11:51:42;5.20;;;1.27;;
70433;SDS011;57876;47.792;12.960;2023-08-01T11:54:08;4.80;;;1.23;;
70433;SDS011;57876;47.792;12.960;2023-08-01T11:56:35;4.57;;;1.40;;
70433;SDS011;57876;47.792;12.960;2023-08-01T11:58:59;4.40;;;1.40;;
70433;SDS011;57876;47.792;12.960;2023-08-01T12:01:23;4.87;;;1.30;;
70433;SDS011;57876;47.792;12.960;2023-08-01T12:03:49;4.60;;;1.27;;
70433;SDS011;57876;47.792;12.960;2023-08-01T12:06:15;4.97;;;1.42;;
70433;SDS011;57876;47.792;12.960;2023-08-01T12:08:44;4.60;;;1.17;;
70433;SDS011;57876;47.792;12.960;2023-08-01T12:11:19;4.57;;;1.20;;
70433;SDS011;57876;47.792;12.960;2023-08-01T12:13:46;4.60;;;1.30;;
70433;SDS011;57876;47.792;12.960;2023-08-01T12:16:11;5.38;;;1.45;;
70433;SDS011;57876;47.792;12.960;2023-08-01T12:18:35;5.20;;;1.20;;
70433;SDS011;57876;47.792;12.960;2023-08-01T12:21:03;4.57;;;1.20;;
70433;SDS011;57876;47.792;12.960;2023-08-01T12:23:29;4.63;;;1.20;;
70433;SDS011;57876;47.792;12.960;2023-08-01T12:25:53;4.80;;;1.27;;
70433;SDS011;57876;47.792;12.960;2023-08-01T12:28:18;4.70;;;1.30;;
70433;SDS011;57876;47.792;12.960;2023-08-01T12:30:43;4.27;;;1.10;;
70433;SDS011;57876;47.792;12.960;2023-08-01T12:33:08;4.20;;;1.10;;
70433;SDS011;57876;47.792;12.960;2023-08-01T12:35:32;4.90;;;1.40;;
70433;SDS011;57876;47.792;12.960;2023-08-01T12:37:57;4.70;;;1.10;;
70433;SDS011;57876;47.792;12.960;2023-08-01T12:40:21;4.87;;;1.30;;
70433;SDS011;57876;47.792;12.960;2023-08-01T12:42:46;4.40;;;1.30;;
70433;SDS011;57876;47.792;12.960;2023-08-01T12:45:10;4.93;;;1.40;;
70433;SDS011;57876;47.792;12.960;2023-08-01T12:47:35;4.40;;;0.97;;
70433;SDS011;57876;47.792;12.960;2023-08-01T12:49:59;4.73;;;1.30;;
70433;SDS011;57876;47.792;12.960;2023-08-01T12:52:24;4.38;;;1.23;;
70433;SDS011;57876;47.792;12.960;2023-08-01T12:54:49;4.70;;;1.27;;
70433;SDS011;57876;47.792;12.960;2023-08-01T12:57:14;4.70;;;1.20;;
70433;SDS011;57876;47.792;12.960;2023-08-01T12:59:38;4.97;;;1.30;;
70433;SDS011;57876;47.792;12.960;2023-08-01T13:02:02;4.67;;;1.30;;
70433;SDS011;57876;47.792;12.960;2023-08-01T13:04:32;4.65;;;1.27;;
70433;SDS011;57876;47.792;12.960;2023-08-01T13:06:56;4.97;;;1.23;;
70433;SDS011;57876;47.792;12.960;2023-08-01T13:09:20;4.70;;;1.43;;
70433;SDS011;57876;47.792;12.960;2023-08-01T13:11:45;4.68;;;1.33;;
70433;SDS011;57876;47.792;12.960;2023-08-01T13:14:09;4.47;;;1.27;;
70433;SDS011;57876;47.792;12.960;2023-08-01T13:16:34;5.20;;;1.43;;
70433;SDS011;57876;47.792;12.960;2023-08-01T13:18:58;4.73;;;1.10;;
70433;SDS011;57876;47.792;12.960;2023-08-01T13:21:23;4.60;;;1.02;;
70433;SDS011;57876;47.792;12.960;2023-08-01T13:23:48;5.10;;;1.37;;
70433;SDS011;57876;47.792;12.960;2023-08-01T13:26:13;4.90;;;1.10;;
70433;SDS011;57876;47.792;12.960;2023-08-01T13:31:35;4.78;;;1.30;;
70433;SDS011;57876;47.792;12.960;2023-08-01T13:33:59;4.30;;;1.30;;
70433;SDS011;57876;47.792;12.960;2023-08-01T13:36:24;4.30;;;1.20;;
70433;SDS011;57876;47.792;12.960;2023-08-01T13:38:48;4.23;;;1.10;;
70433;SDS011;57876;47.792;12.960;2023-08-01T13:41:13;5.17;;;1.30;;
70433;SDS011;57876;47.792;12.960;2023-08-01T13:43:38;4.38;;;1.30;;
70433;SDS011;57876;47.792;12.960;2023-08-01T13:46:14;5.70;;;1.40;;
70433;SDS011;57876;47.792;12.960;2023-08-01T13:48:38;4.60;;;1.30;;
70433;SDS011;57876;47.792;12.960;2023-08-01T13:51:03;4.43;;;1.30;;
70433;SDS011;57876;47.792;12.960;2023-08-01T13:53:27;4.40;;;1.20;;
70433;SDS011;57876;47.792;12.960;2023-08-01T13:55:52;4.60;;;1.17;;
70433;SDS011;57876;47.792;12.960;2023-08-01T13:58:16;4.73;;;1.30;;
70433;SDS011;57876;47.792;12.960;2023-08-01T14:00:40;4.47;;;1.23;;
70433;SDS011;57876;47.792;12.960;2023-08-01T14:03:05;5.10;;;1.30;;
70433;SDS011;57876;47.792;12.960;2023-08-01T14:05:29;4.60;;;1.40;;
70433;SDS011;57876;47.792;12.960;2023-08-01T14:07:53;4.30;;;1.40;;
70433;SDS011;57876;47.792;12.960;2023-08-01T14:10:18;4.70;;;1.30;;
70433;SDS011;57876;47.792;12.960;2023-08-01T14:12:43;4.95;;;1.27;;
70433;SDS011;57876;47.792;12.960;2023-08-01T14:15:07;4.83;;;1.30;;
70433;SDS011;57876;47.792;12.960;2023-08-01T14:17:32;4.60;;;1.42;;
70433;SDS011;57876;47.792;12.960;2023-08-01T14:19:57;4.72;;;1.30;;
70433;SDS011;57876;47.792;12.960;2023-08-01T14:22:23;5.67;;;1.37;;
70433;SDS011;57876;47.792;12.960;2023-08-01T14:24:47;4.53;;;1.10;;